Time;durP1;ratioP1;P1;durP2;ratioP2;P2;SDS_P1;SDS_P2;PMS_P1;PMS_P2;Temp;Humidity;BMP_temperature;BMP_pressure;BME280_temperature;BME280_humidity;BME280_pressure;Samples;Min_cycle;Max_cycle;Signal;HPM_P1;HPM_P2
2022/08/02 00:00:51;;;;;;;;;;;;;;;24.79;50.05;99750.19;4259070;33;20021;-84
2022/08/02 00:03:22;;;;;;;;;;;;;;;24.92;49.60;99744.31;4253538;33;20395;-83
2022/08/02 00:05:50;;;;;;;;;;;;;;;24.80;50.07;99740.44;4251014;33;19994;-84
2022/08/02 00:08:20;;;;;;;;;;;;;;;24.76;49.90;99741.47;4252343;33;20272;-84
2022/08/02 00:10:47;;;;;;;;;;;;;;;24.67;50.34;99750.72;4258562;33;19986;-84
2022/08/02 00:13:14;;;;;;;;;;;;;;;24.73;50.33;99746.91;4261726;33;20793;-84
2022/08/02 00:15:41;;;;;;;;;;;;;;;24.76;50.31;99749.44;4289622;33;20007;-83
2022/08/02 00:18:08;;;;;;;;;;;;;;;24.70;50.55;99749.72;4269989;33;20097;-83
2022/08/02 00:20:36;;;;;;;;;;;;;;;24.57;50.77;99750.25;4274792;33;20027;-83
2022/08/02 00:23:03;;;;;;;;;;;;;;;24.53;50.83;99745.12;4286067;33;19993;-84
2022/08/02 00:25:30;;;;;;;;;;;;;;;24.35;51.61;99744.13;4297065;33;20331;-84
2022/08/02 00:27:57;;;;;;;;;;;;;;;24.41;51.27;99738.59;4296342;33;19992;-84
2022/08/02 00:30:24;;;;;;;;;;;;;;;24.37;51.26;99745.75;4300516;33;20037;-84
2022/08/02 00:32:51;;;;;;;;;;;;;;;24.29;51.43;99747.03;4294040;33;20011;-83
2022/08/02 00:35:17;;;;;;;;;;;;;;;24.35;50.94;99744.13;4301336;33;19988;-84
2022/08/02 00:37:45;;;;;;;;;;;;;;;24.25;51.38;99748.03;4300147;33;20043;-83
2022/08/02 00:40:12;;;;;;;;;;;;;;;24.23;51.29;99749.91;4280623;33;19999;-83
2022/08/02 00:42:39;;;;;;;;;;;;;;;24.34;50.96;99745.03;4302386;33;19989;-83
2022/08/02 00:45:06;;;;;;;;;;;;;;;24.22;51.42;99753.47;4295455;33;19980;-83
2022/08/02 00:47:33;;;;;;;;;;;;;;;24.12;51.75;99747.69;4310487;33;20007;-84
2022/08/02 00:50:00;;;;;;;;;;;;;;;24.10;51.69;99753.06;4309234;33;19980;-83
2022/08/02 00:52:27;;;;;;;;;;;;;;;24.20;51.08;99757.97;4305175;33;19996;-84
2022/08/02 00:54:54;;;;;;;;;;;;;;;24.33;50.25;99761.84;4297509;33;20444;-84
2022/08/02 00:57:21;;;;;;;;;;;;;;;24.34;50.40;99763.53;4299123;33;20392;-84
2022/08/02 00:59:47;;;;;;;;;;;;;;;24.17;51.07;99769.53;4303346;33;20499;-84
2022/08/02 01:02:15;;;;;;;;;;;;;;;24.23;51.20;99760.50;4297306;33;20350;-84
2022/08/02 01:04:42;;;;;;;;;;;;;;;24.23;51.34;99765.78;4300891;33;20063;-84
2022/08/02 01:07:09;;;;;;;;;;;;;;;24.10;51.71;99761.00;4303862;33;20020;-83
2022/08/02 01:09:45;;;;;;;;;;;;;;;24.06;51.67;99769.12;4277921;33;20001;-83
2022/08/02 01:12:12;;;;;;;;;;;;;;;23.95;51.86;99751.03;4296137;33;20043;-83
2022/08/02 01:14:41;;;;;;;;;;;;;;;23.91;51.69;99754.72;4303856;33;19988;-84
2022/08/02 01:17:09;;;;;;;;;;;;;;;24.07;50.97;99755.84;4308561;33;19992;-84
2022/08/02 01:19:42;;;;;;;;;;;;;;;23.86;51.98;99751.41;4304141;33;19989;-84
2022/08/02 01:22:13;;;;;;;;;;;;;;;23.93;51.76;99755.53;4276205;33;20042;-84
2022/08/02 01:25:13;;;;;;;;;;;;;;;23.69;52.26;99757.37;4296695;33;20748;-83
2022/08/02 01:27:51;;;;;;;;;;;;;;;23.85;51.92;99760.25;4275040;33;19985;-83
2022/08/02 01:30:18;;;;;;;;;;;;;;;23.90;52.20;99763.59;4295982;33;20028;-84
2022/08/02 01:32:48;;;;;;;;;;;;;;;23.74;52.68;99763.34;4280303;33;20001;-83
2022/08/02 01:35:16;;;;;;;;;;;;;;;23.84;52.17;99771.78;4288674;33;19998;-84
2022/08/02 01:37:43;;;;;;;;;;;;;;;23.77;52.20;99768.50;4282470;33;19992;-83
2022/08/02 01:40:17;;;;;;;;;;;;;;;23.69;52.37;99770.56;4282472;33;20304;-84
2022/08/02 01:42:45;;;;;;;;;;;;;;;23.62;52.76;99769.06;4287043;33;20027;-83
2022/08/02 01:45:12;;;;;;;;;;;;;;;23.60;52.94;99769.12;4286722;33;19995;-84
2022/08/02 01:47:39;;;;;;;;;;;;;;;23.70;52.49;99771.44;4256151;33;19994;-83
2022/08/02 01:50:07;;;;;;;;;;;;;;;23.64;52.68;99778.66;4267294;33;20434;-83
2022/08/02 01:52:36;;;;;;;;;;;;;;;23.48;53.10;99782.78;4269408;33;20359;-83
2022/08/02 01:55:05;;;;;;;;;;;;;;;23.35;53.60;99781.53;4271524;33;20903;-83
2022/08/02 01:57:37;;;;;;;;;;;;;;;23.23;53.97;99792.53;4278642;33;19993;-83
2022/08/02 02:00:09;;;;;;;;;;;;;;;23.34;53.43;99790.38;4268592;33;20064;-84
2022/08/02 02:02:36;;;;;;;;;;;;;;;23.42;53.37;99788.28;4300571;33;19997;-83
2022/08/02 02:05:04;;;;;;;;;;;;;;;23.37;53.48;99795.56;4301374;33;19980;-83
2022/08/02 02:07:33;;;;;;;;;;;;;;;23.37;53.34;99795.56;4296713;33;20294;-83
2022/08/02 02:10:00;;;;;;;;;;;;;;;23.34;53.38;99795.66;4293514;33;20059;-84
2022/08/02 02:12:27;;;;;;;;;;;;;;;23.17;53.89;99794.50;4295772;33;20006;-84
2022/08/02 02:14:54;;;;;;;;;;;;;;;23.28;53.54;99790.59;4303083;33;19998;-83
2022/08/02 02:17:21;;;;;;;;;;;;;;;23.23;53.85;99797.81;4297070;33;20048;-84
2022/08/02 02:20:13;;;;;;;;;;;;;;;23.18;53.53;99804.16;4295902;33;20031;-84
2022/08/02 02:22:40;;;;;;;;;;;;;;;23.34;52.92;99798.31;4295494;33;20003;-84
2022/08/02 02:25:07;;;;;;;;;;;;;;;23.25;53.27;99799.50;4296686;33;19993;-84
2022/08/02 02:27:38;;;;;;;;;;;;;;;23.20;53.57;99797.03;4297868;33;20008;-83
2022/08/02 02:30:10;;;;;;;;;;;;;;;23.12;53.99;99796.44;4300195;33;19985;-84
2022/08/02 02:32:37;;;;;;;;;;;;;;;23.30;53.13;99799.34;4302657;33;19992;-83
2022/08/02 02:35:05;;;;;;;;;;;;;;;23.09;53.86;99791.28;4295426;33;20334;-84
2022/08/02 02:37:32;;;;;;;;;;;;;;;22.86;54.30;99796.50;4301300;33;19988;-84
2022/08/02 02:39:59;;;;;;;;;;;;;;;22.87;54.36;99801.69;4305097;33;19980;-84
2022/08/02 02:42:28;;;;;;;;;;;;;;;23.13;53.34;99803.47;4305293;33;20011;-83
2022/08/02 02:44:54;;;;;;;;;;;;;;;23.19;53.33;99808.50;4295247;33;20335;-83
2022/08/02 02:47:21;;;;;;;;;;;;;;;22.97;54.01;99813.72;4295493;33;20009;-84
2022/08/02 02:50:07;;;;;;;;;;;;;;;23.15;53.49;99811.31;4284920;33;19980;-83
2022/08/02 02:52:34;;;;;;;;;;;;;;;23.06;53.97;99811.66;4303566;33;20040;-84
2022/08/02 02:55:01;;;;;;;;;;;;;;;22.85;54.75;99807.97;4296607;33;19996;-83
2022/08/02 02:57:28;;;;;;;;;;;;;;;22.77;54.85;99794.16;4269974;33;20019;-84
2022/08/02 02:59:57;;;;;;;;;;;;;;;23.01;53.74;99806.53;4295003;33;19995;-84
2022/08/02 03:02:24;;;;;;;;;;;;;;;23.03;53.67;99788.84;4298235;33;19984;-84
2022/08/02 03:04:51;;;;;;;;;;;;;;;22.89;54.27;99796.38;4301254;33;20036;-84
2022/08/02 03:07:24;;;;;;;;;;;;;;;23.01;53.95;99793.34;4296694;33;19999;-84
2022/08/02 03:09:51;;;;;;;;;;;;;;;23.05;53.62;99789.66;4296247;33;20282;-84
2022/08/02 03:12:22;;;;;;;;;;;;;;;22.88;54.30;99786.75;4298071;33;20000;-84
2022/08/02 03:15:00;;;;;;;;;;;;;;;22.80;54.74;99779.09;4302204;33;20379;-84
2022/08/02 03:17:59;;;;;;;;;;;;;;;22.78;54.70;99777.41;4296336;33;20007;-83
2022/08/02 03:20:26;;;;;;;;;;;;;;;22.74;54.70;99776.66;4264124;33;20003;-84
2022/08/02 03:22:53;;;;;;;;;;;;;;;22.86;54.40;99780.66;4296215;33;19988;-84
2022/08/02 03:25:20;;;;;;;;;;;;;;;22.74;54.68;99788.06;4299558;33;20031;-84
2022/08/02 03:27:47;;;;;;;;;;;;;;;22.92;53.92;99788.34;4298082;33;19976;-85
2022/08/02 03:30:14;;;;;;;;;;;;;;;22.84;54.40;99795.66;4296504;33;20132;-83
2022/08/02 03:32:42;;;;;;;;;;;;;;;22.81;54.49;99795.78;4285197;33;20027;-83
2022/08/02 03:35:09;;;;;;;;;;;;;;;22.87;54.39;99795.56;4280486;33;20029;-84
2022/08/02 03:37:36;;;;;;;;;;;;;;;22.79;54.45;99802.91;4286554;33;20016;-84
2022/08/02 03:40:07;;;;;;;;;;;;;;;22.85;54.37;99800.06;4295794;33;20036;-84
2022/08/02 03:42:34;;;;;;;;;;;;;;;22.90;54.09;99795.44;4287780;33;19989;-84
2022/08/02 03:45:01;;;;;;;;;;;;;;;22.84;53.97;99800.94;4280936;33;19993;-85
2022/08/02 03:47:35;;;;;;;;;;;;;;;22.70;54.64;99804.06;4272686;33;19988;-85
2022/08/02 03:50:01;;;;;;;;;;;;;;;22.63;54.79;99808.69;4281819;33;19989;-85
2022/08/02 03:52:28;;;;;;;;;;;;;;;23.00;53.11;99807.44;4281909;33;20012;-83
2022/08/02 03:54:56;;;;;;;;;;;;;;;22.83;53.86;99810.66;4280237;33;20363;-84
2022/08/02 03:57:22;;;;;;;;;;;;;;;22.83;54.10;99805.38;4282415;33;19997;-85
2022/08/02 03:59:49;;;;;;;;;;;;;;;22.79;54.42;99813.47;4285821;33;20060;-85
2022/08/02 04:02:16;;;;;;;;;;;;;;;22.71;55.09;99816.34;4289164;33;20037;-85
2022/08/02 04:04:43;;;;;;;;;;;;;;;22.88;54.63;99818.44;4289113;33;20846;-84
2022/08/02 04:07:10;;;;;;;;;;;;;;;22.82;54.69;99814.22;4283808;33;20028;-83
2022/08/02 04:09:37;;;;;;;;;;;;;;;22.90;54.12;99821.84;4282464;33;19988;-86
2022/08/02 04:12:05;;;;;;;;;;;;;;;22.81;54.81;99811.59;4284320;33;20129;-88
2022/08/02 04:14:32;;;;;;;;;;;;;;;22.58;55.76;99821.16;4289182;33;20000;-83
2022/08/02 04:17:03;;;;;;;;;;;;;;;22.78;55.13;99827.56;4282735;33;26583;-84
2022/08/02 04:19:30;;;;;;;;;;;;;;;22.89;54.85;99822.78;4289570;33;20364;-84
2022/08/02 04:21:59;;;;;;;;;;;;;;;22.81;55.02;99822.16;4283314;33;20343;-84
2022/08/02 04:24:26;;;;;;;;;;;;;;;23.05;54.10;99826.63;4281440;33;20052;-84
2022/08/02 04:26:54;;;;;;;;;;;;;;;23.05;54.59;99837.19;4288056;33;19984;-85
2022/08/02 04:29:24;;;;;;;;;;;;;;;23.07;54.40;99840.66;4296459;33;19969;-82
2022/08/02 04:31:52;;;;;;;;;;;;;;;23.12;53.98;99833.41;4292990;33;20005;-85
2022/08/02 04:34:19;;;;;;;;;;;;;;;23.15;53.89;99835.94;4288184;33;20003;-85
2022/08/02 04:36:46;;;;;;;;;;;;;;;23.19;53.80;99832.28;4283861;33;20017;-85
2022/08/02 04:39:13;;;;;;;;;;;;;;;23.24;54.09;99831.25;4287009;33;20011;-84
2022/08/02 04:41:42;;;;;;;;;;;;;;;23.27;54.10;99831.16;4287433;33;19996;-84
2022/08/02 04:44:10;;;;;;;;;;;;;;;23.29;53.99;99829.31;4288716;33;20393;-84
2022/08/02 04:46:37;;;;;;;;;;;;;;;23.30;54.17;99825.75;4290395;33;20023;-84
2022/08/02 04:49:05;;;;;;;;;;;;;;;23.35;53.39;99831.72;4291279;33;20037;-83
2022/08/02 04:51:38;;;;;;;;;;;;;;;23.53;52.27;99838.12;4283129;33;20320;-84
2022/08/02 04:54:09;;;;;;;;;;;;;;;23.45;52.89;99833.09;4282555;33;20316;-84
2022/08/02 04:56:37;;;;;;;;;;;;;;;23.41;53.33;99839.41;4286468;33;19989;-83
2022/08/02 04:59:04;;;;;;;;;;;;;;;23.54;52.86;99839.84;4288411;33;19984;-84
2022/08/02 05:01:31;;;;;;;;;;;;;;;23.63;52.49;99845.62;4286567;33;20052;-85
2022/08/02 05:03:58;;;;;;;;;;;;;;;23.65;52.46;99843.81;4296169;33;20010;-85
2022/08/02 05:06:25;;;;;;;;;;;;;;;23.74;52.88;99849.69;4297088;33;20339;-81
2022/08/02 05:08:52;;;;;;;;;;;;;;;23.87;52.54;99853.59;4297209;33;19988;-84
2022/08/02 05:11:20;;;;;;;;;;;;;;;23.79;52.84;99866.25;4296184;33;19996;-84
2022/08/02 05:13:48;;;;;;;;;;;;;;;23.94;52.45;99868.31;4295732;33;19992;-86
2022/08/02 05:16:25;;;;;;;;;;;;;;;23.87;52.40;99869.47;4288148;33;19992;-85
2022/08/02 05:18:58;;;;;;;;;;;;;;;23.90;52.59;99864.91;4295997;33;19981;-86
2022/08/02 05:21:25;;;;;;;;;;;;;;;23.90;52.88;99866.72;4292624;33;20013;-84
2022/08/02 05:23:52;;;;;;;;;;;;;;;23.97;53.04;99870.84;4289023;33;19992;-85
2022/08/02 05:26:19;;;;;;;;;;;;;;;24.08;52.84;99884.50;4281823;33;20060;-86
2022/08/02 05:28:47;;;;;;;;;;;;;;;24.18;51.91;99884.13;4282724;33;21081;-85
2022/08/02 05:31:13;;;;;;;;;;;;;;;24.17;52.11;99883.28;4286910;33;20024;-86
2022/08/02 05:33:40;;;;;;;;;;;;;;;23.50;55.39;99889.28;4279910;33;19989;-86
2022/08/02 05:36:08;;;;;;;;;;;;;;;24.02;53.69;99890.00;4281537;33;19981;-86
2022/08/02 05:38:35;;;;;;;;;;;;;;;24.23;52.33;99890.12;4287567;33;19992;-86
2022/08/02 05:41:04;;;;;;;;;;;;;;;24.29;52.18;99889.88;4281642;33;20040;-86
2022/08/02 05:43:31;;;;;;;;;;;;;;;24.30;52.17;99888.94;4287446;33;20001;-87
2022/08/02 05:45:58;;;;;;;;;;;;;;;24.36;51.46;99894.84;4289081;33;20071;-86
2022/08/02 05:48:25;;;;;;;;;;;;;;;24.55;50.72;99900.31;4295805;33;20011;-86
2022/08/02 05:51:05;;;;;;;;;;;;;;;24.53;50.63;99896.84;4295830;33;19988;-86
2022/08/02 05:53:35;;;;;;;;;;;;;;;24.46;51.06;99898.03;4306866;33;21070;-85
2022/08/02 05:56:17;;;;;;;;;;;;;;;24.28;51.28;99902.25;4295444;33;20006;-86
2022/08/02 05:58:44;;;;;;;;;;;;;;;24.44;50.95;99906.94;4284777;33;19991;-86
2022/08/02 06:01:12;;;;;;;;;;;;;;;24.49;51.20;99900.56;4286928;33;20401;-86
2022/08/02 06:03:42;;;;;;;;;;;;;;;24.73;50.38;99900.47;4308296;33;19999;-86
2022/08/02 06:06:10;;;;;;;;;;;;;;;24.71;50.49;99900.53;4295558;33;20960;-86
2022/08/02 06:08:38;;;;;;;;;;;;;;;24.74;50.29;99905.72;4272537;33;20399;-86
2022/08/02 06:11:13;;;;;;;;;;;;;;;24.90;49.11;99905.94;4284098;33;20271;-86
2022/08/02 06:13:40;;;;;;;;;;;;;;;24.84;49.39;99916.78;4288020;33;20006;-86
2022/08/02 06:16:07;;;;;;;;;;;;;;;25.04;48.90;99903.53;4283086;33;19985;-87
2022/08/02 06:18:41;;;;;;;;;;;;;;;25.12;48.58;99905.91;4284197;33;19980;-85
2022/08/02 06:21:09;;;;;;;;;;;;;;;25.16;48.84;99896.06;4288594;33;20037;-87
2022/08/02 06:23:57;;;;;;;;;;;;;;;25.18;48.89;99904.81;4281045;33;20445;-84
2022/08/02 06:26:30;;;;;;;;;;;;;;;25.26;48.92;99897.38;4290711;33;20079;-86
2022/08/02 06:28:58;;;;;;;;;;;;;;;25.29;47.35;99903.38;4284817;33;19988;-86
2022/08/02 06:31:25;;;;;;;;;;;;;;;25.47;47.52;99911.47;4285546;33;20000;-85
2022/08/02 06:33:52;;;;;;;;;;;;;;;25.65;47.28;99909.78;4274636;33;20036;-85
2022/08/02 06:36:39;;;;;;;;;;;;;;;25.85;46.38;99907.13;4282311;33;19985;-85
2022/08/02 06:39:13;;;;;;;;;;;;;;;26.14;45.49;99918.19;4290248;33;19981;-85
2022/08/02 06:41:41;;;;;;;;;;;;;;;26.38;45.10;99916.16;4284242;33;20004;-84
2022/08/02 06:44:12;;;;;;;;;;;;;;;26.62;44.64;99908.84;4288871;33;20017;-84
2022/08/02 06:46:59;;;;;;;;;;;;;;;26.98;43.99;99906.12;4290788;33;20007;-83
2022/08/02 06:49:38;;;;;;;;;;;;;;;27.52;43.02;99916.69;4290961;33;20405;-84
2022/08/02 06:52:24;;;;;;;;;;;;;;;27.78;43.90;99908.19;4283582;33;20001;-83
2022/08/02 06:54:55;;;;;;;;;;;;;;;28.11;41.69;99915.31;4282661;33;19988;-83
2022/08/02 06:57:23;;;;;;;;;;;;;;;28.59;40.72;99910.84;4288609;33;19992;-83
2022/08/02 06:59:50;;;;;;;;;;;;;;;28.88;41.60;99916.28;4287669;33;20573;-84
2022/08/02 07:02:16;;;;;;;;;;;;;;;28.95;39.97;99909.66;4280284;33;20016;-84
2022/08/02 07:04:43;;;;;;;;;;;;;;;29.13;39.71;99910.37;4281032;33;19993;-84
2022/08/02 07:07:10;;;;;;;;;;;;;;;29.40;37.58;99902.53;4281459;33;20001;-84
2022/08/02 07:09:37;;;;;;;;;;;;;;;29.17;39.54;99902.13;4287831;33;20316;-84
2022/08/02 07:12:22;;;;;;;;;;;;;;;29.15;39.34;99909.34;4283301;33;20833;-85
2022/08/02 07:14:49;;;;;;;;;;;;;;;29.20;40.81;99896.59;4284855;33;20052;-84
2022/08/02 07:17:16;;;;;;;;;;;;;;;29.77;39.15;99902.94;4281762;33;20059;-84
2022/08/02 07:19:43;;;;;;;;;;;;;;;30.25;38.50;99900.81;4281514;33;20006;-84
2022/08/02 07:22:11;;;;;;;;;;;;;;;29.98;38.79;99893.59;4282652;33;20489;-84
2022/08/02 07:24:40;;;;;;;;;;;;;;;29.95;40.03;99896.47;4288182;33;19981;-87
2022/08/02 07:27:08;;;;;;;;;;;;;;;30.61;35.06;99891.38;4282296;33;19993;-86
2022/08/02 07:29:38;;;;;;;;;;;;;;;30.77;34.88;99897.44;4283623;33;20044;-86
2022/08/02 07:32:15;;;;;;;;;;;;;;;30.74;35.85;99892.28;4283731;33;20004;-86
2022/08/02 07:34:42;;;;;;;;;;;;;;;30.69;37.08;99899.72;4281168;33;20004;-86
2022/08/02 07:37:20;;;;;;;;;;;;;;;30.98;35.27;99890.66;4288874;33;20040;-85
2022/08/02 07:40:07;;;;;;;;;;;;;;;30.87;37.02;99889.66;4300809;33;19981;-86
2022/08/02 07:42:40;;;;;;;;;;;;;;;31.44;34.53;99887.50;4288536;33;19989;-85
2022/08/02 07:45:07;;;;;;;;;;;;;;;31.76;32.21;99884.38;4288773;33;19973;-85
2022/08/02 07:47:38;;;;;;;;;;;;;;;31.65;33.85;99886.94;4282516;33;20003;-85
2022/08/02 07:50:05;;;;;;;;;;;;;;;31.43;33.53;99891.16;4283265;33;19995;-85
2022/08/02 07:52:32;;;;;;;;;;;;;;;31.32;34.04;99888.31;4286055;33;20000;-87
2022/08/02 07:55:00;;;;;;;;;;;;;;;31.33;35.34;99890.06;4283362;33;20866;-86
2022/08/02 07:57:27;;;;;;;;;;;;;;;31.67;34.17;99885.88;4300048;33;19985;-84
2022/08/02 07:59:54;;;;;;;;;;;;;;;31.61;34.52;99885.47;4298236;33;20934;-81
2022/08/02 08:02:23;;;;;;;;;;;;;;;32.18;33.31;99887.63;4301399;33;20007;-81
2022/08/02 08:04:51;;;;;;;;;;;;;;;31.95;33.85;99887.47;4295188;33;19989;-83
2022/08/02 08:07:22;;;;;;;;;;;;;;;32.38;32.53;99889.69;4292546;33;20028;-83
2022/08/02 08:09:59;;;;;;;;;;;;;;;32.46;33.43;99885.63;4299568;33;19996;-83
2022/08/02 08:12:28;;;;;;;;;;;;;;;32.73;32.94;99883.53;4308630;33;19985;-84
2022/08/02 08:14:59;;;;;;;;;;;;;;;33.15;32.22;99893.81;4306365;33;20516;-84
2022/08/02 08:17:27;;;;;;;;;;;;;;;33.08;32.47;99893.44;4299337;33;19992;-82
2022/08/02 08:19:54;;;;;;;;;;;;;;;33.01;31.25;99900.25;4298600;33;20052;-82
2022/08/02 08:22:22;;;;;;;;;;;;;;;33.39;29.75;99896.44;4304431;33;19989;-81
2022/08/02 08:24:49;;;;;;;;;;;;;;;33.50;31.12;99897.31;4308798;33;20040;-81
2022/08/02 08:27:18;;;;;;;;;;;;;;;33.63;31.35;99899.03;4302529;33;20055;-81
2022/08/02 08:29:46;;;;;;;;;;;;;;;33.08;31.43;99898.81;4310629;33;20683;-83
2022/08/02 08:32:13;;;;;;;;;;;;;;;34.03;28.72;99891.38;4307343;33;20027;-82
2022/08/02 08:34:46;;;;;;;;;;;;;;;33.75;29.75;99903.44;4302877;33;20004;-82
2022/08/02 08:37:14;;;;;;;;;;;;;;;33.50;30.36;99894.66;4296851;33;19989;-82
2022/08/02 08:39:46;;;;;;;;;;;;;;;33.68;29.93;99897.72;4307211;33;19988;-81
2022/08/02 08:42:25;;;;;;;;;;;;;;;33.76;29.64;99906.03;4300251;33;19977;-82
2022/08/02 08:44:53;;;;;;;;;;;;;;;34.10;30.35;99902.47;4305386;33;20013;-81
2022/08/02 08:47:20;;;;;;;;;;;;;;;33.70;30.06;99909.19;4307485;33;20010;-82
2022/08/02 08:49:47;;;;;;;;;;;;;;;33.52;28.76;99913.31;4308588;33;19977;-81
2022/08/02 08:52:19;;;;;;;;;;;;;;;33.52;29.30;99899.91;4303102;33;19996;-80
2022/08/02 08:54:45;;;;;;;;;;;;;;;33.85;29.67;99899.03;4307420;33;20035;-82
2022/08/02 08:57:15;;;;;;;;;;;;;;;34.03;29.27;99908.34;4307791;33;20000;-83
2022/08/02 08:59:42;;;;;;;;;;;;;;;34.41;26.85;99906.22;4303518;33;19968;-82
2022/08/02 09:02:09;;;;;;;;;;;;;;;34.55;25.78;99903.25;4305552;33;20022;-83
2022/08/02 09:04:47;;;;;;;;;;;;;;;34.56;26.69;99909.47;4308436;33;20012;-81
2022/08/02 09:07:21;;;;;;;;;;;;;;;34.40;26.03;99907.19;4305970;33;19996;-82
2022/08/02 09:09:48;;;;;;;;;;;;;;;34.59;26.44;99903.84;4295326;33;19981;-82
2022/08/02 09:12:15;;;;;;;;;;;;;;;34.91;24.54;99904.72;4307167;33;20044;-84
2022/08/02 09:14:42;;;;;;;;;;;;;;;34.66;25.54;99905.06;4311387;33;20389;-85
2022/08/02 09:17:11;;;;;;;;;;;;;;;34.66;26.03;99911.28;4312236;33;19984;-83
2022/08/02 09:19:38;;;;;;;;;;;;;;;34.83;25.47;99898.25;4307199;33;20020;-84
2022/08/02 09:22:12;;;;;;;;;;;;;;;35.08;24.91;99903.28;4303370;33;20080;-85
2022/08/02 09:24:41;;;;;;;;;;;;;;;34.77;25.26;99909.53;4296240;33;20024;-85
2022/08/02 09:27:15;;;;;;;;;;;;;;;34.76;25.63;99911.38;4298283;33;19984;-85
2022/08/02 09:29:51;;;;;;;;;;;;;;;35.17;24.56;99904.34;4312413;33;20043;-85
2022/08/02 09:32:48;;;;;;;;;;;;;;;34.96;25.51;99904.31;4310640;33;19999;-85
2022/08/02 09:35:31;;;;;;;;;;;;;;;35.20;24.57;99904.09;4302355;33;20003;-84
2022/08/02 09:38:18;;;;;;;;;;;;;;;35.50;24.74;99905.97;4297168;33;19992;-84
2022/08/02 09:40:45;;;;;;;;;;;;;;;35.38;25.14;99907.00;4304908;33;19984;-83
2022/08/02 09:43:13;;;;;;;;;;;;;;;35.28;24.46;99906.97;4309931;33;19991;-82
2022/08/02 09:45:40;;;;;;;;;;;;;;;35.58;23.96;99906.19;4310467;33;19992;-85
2022/08/02 09:48:07;;;;;;;;;;;;;;;35.29;25.20;99897.03;4304111;33;19985;-84
2022/08/02 09:50:38;;;;;;;;;;;;;;;35.51;24.69;99901.41;4298834;33;20028;-84
2022/08/02 09:53:11;;;;;;;;;;;;;;;35.91;24.25;99896.09;4305531;33;20004;-85
2022/08/02 09:55:39;;;;;;;;;;;;;;;36.08;23.74;99892.78;4297166;33;20011;-83
2022/08/02 09:58:16;;;;;;;;;;;;;;;35.61;25.67;99891.56;4297675;33;19995;-84
2022/08/02 10:00:57;;;;;;;;;;;;;;;35.44;25.12;99893.03;4297401;33;19976;-85
2022/08/02 10:03:25;;;;;;;;;;;;;;;35.36;25.51;99887.47;4304230;33;19984;-86
2022/08/02 10:06:03;;;;;;;;;;;;;;;34.88;27.52;99882.59;4312053;33;20481;-86
2022/08/02 10:08:31;;;;;;;;;;;;;;;34.49;28.17;99893.84;4311950;33;19979;-85
2022/08/02 10:10:59;;;;;;;;;;;;;;;33.76;29.51;99892.59;4306076;33;19990;-85
2022/08/02 10:13:30;;;;;;;;;;;;;;;33.84;28.30;99891.12;4297372;33;19981;-83
2022/08/02 10:15:57;;;;;;;;;;;;;;;33.68;28.60;99886.97;4303367;33;20043;-83
2022/08/02 10:18:24;;;;;;;;;;;;;;;33.75;28.20;99881.97;4299023;33;19984;-82
2022/08/02 10:21:17;;;;;;;;;;;;;;;33.27;29.37;99879.47;4297361;33;20077;-83
2022/08/02 10:23:44;;;;;;;;;;;;;;;33.45;28.67;99879.87;4297448;33;20754;-87
2022/08/02 10:26:13;;;;;;;;;;;;;;;33.11;30.86;99882.47;4298807;33;20027;-86
2022/08/02 10:28:40;;;;;;;;;;;;;;;33.55;28.16;99880.88;4305630;33;19988;-81
2022/08/02 10:31:07;;;;;;;;;;;;;;;33.24;28.68;99875.19;4296843;33;20019;-82
2022/08/02 10:33:34;;;;;;;;;;;;;;;32.70;30.49;99869.53;4299474;33;19988;-83
2022/08/02 10:36:02;;;;;;;;;;;;;;;32.65;31.33;99875.25;4301412;33;20003;-82
2022/08/02 10:38:36;;;;;;;;;;;;;;;32.19;30.53;99867.91;4296105;33;19969;-84
2022/08/02 10:41:04;;;;;;;;;;;;;;;32.50;33.20;99871.03;4297176;33;20366;-87
2022/08/02 10:43:30;;;;;;;;;;;;;;;32.69;32.93;99868.66;4303624;33;19993;-83
2022/08/02 10:46:16;;;;;;;;;;;;;;;32.91;31.04;99861.69;4297212;33;20044;-84
2022/08/02 10:49:02;;;;;;;;;;;;;;;32.80;30.75;99868.72;3703940;33;20002330;-83
2022/08/02 10:51:53;;;;;;;;;;;;;;;32.91;29.91;99875.09;4299490;33;20364;-83
2022/08/02 10:54:22;;;;;;;;;;;;;;;32.57;31.24;99872.28;4283554;33;20020;-83
2022/08/02 10:56:50;;;;;;;;;;;;;;;32.63;30.16;99871.81;4288011;33;20002;-85
2022/08/02 10:59:34;;;;;;;;;;;;;;;32.46;31.96;99864.19;4311311;33;19984;-83
2022/08/02 11:02:03;;;;;;;;;;;;;;;32.03;32.19;99867.31;4304833;33;19996;-83
2022/08/02 11:04:36;;;;;;;;;;;;;;;31.99;35.78;99872.03;4301872;33;19996;-85
2022/08/02 11:07:06;;;;;;;;;;;;;;;31.88;33.28;99864.78;4296908;33;20024;-83
2022/08/02 11:09:33;;;;;;;;;;;;;;;31.88;34.46;99858.56;4303840;33;20645;-84
2022/08/02 11:12:07;;;;;;;;;;;;;;;31.96;35.41;99857.03;4311839;33;20256;-86
2022/08/02 11:14:36;;;;;;;;;;;;;;;32.24;32.12;99859.53;4299555;33;20004;-85
2022/08/02 11:17:04;;;;;;;;;;;;;;;32.01;31.87;99847.84;4296714;33;20031;-85
2022/08/02 11:19:32;;;;;;;;;;;;;;;32.10;32.56;99852.50;4300692;33;20015;-84
2022/08/02 11:22:10;;;;;;;;;;;;;;;32.64;30.78;99858.31;4286899;33;20361;-86
2022/08/02 11:24:40;;;;;;;;;;;;;;;32.37;31.36;99855.81;4297684;33;20055;-82
2022/08/02 11:27:07;;;;;;;;;;;;;;;32.79;29.39;99856.28;4301517;33;20034;-85
2022/08/02 11:29:34;;;;;;;;;;;;;;;32.24;33.12;99860.38;4296193;33;20373;-82
2022/08/02 11:32:07;;;;;;;;;;;;;;;32.04;34.21;99859.19;4296877;33;19973;-85
2022/08/02 11:34:35;;;;;;;;;;;;;;;32.02;32.62;99860.25;4286691;33;20003;-83
2022/08/02 11:37:04;;;;;;;;;;;;;;;31.93;33.94;99856.41;4294779;33;20008;-82
2022/08/02 11:39:31;;;;;;;;;;;;;;;31.80;33.32;99850.22;4295696;33;20492;-85
2022/08/02 11:41:59;;;;;;;;;;;;;;;32.44;31.09;99845.53;4298694;33;20051;-85
2022/08/02 11:44:26;;;;;;;;;;;;;;;32.88;32.71;99839.47;4297682;33;20004;-84
2022/08/02 11:46:57;;;;;;;;;;;;;;;33.24;30.07;99844.81;4306491;33;19999;-83
2022/08/02 11:49:24;;;;;;;;;;;;;;;33.11;31.16;99850.28;4313081;33;20267;-82
2022/08/02 11:51:59;;;;;;;;;;;;;;;32.73;32.01;99846.00;4318241;33;20022;-83
2022/08/02 11:54:27;;;;;;;;;;;;;;;32.84;31.30;99843.38;4309900;33;20457;-84
2022/08/02 11:56:54;;;;;;;;;;;;;;;32.92;30.78;99844.59;4307084;33;20787;-82
2022/08/02 11:59:24;;;;;;;;;;;;;;;33.06;29.43;99841.75;4311451;33;20039;-83
2022/08/02 12:01:51;;;;;;;;;;;;;;;32.99;28.83;99840.50;4316551;33;19980;-84
2022/08/02 12:04:19;;;;;;;;;;;;;;;32.64;30.32;99852.06;4315440;33;20334;-84
2022/08/02 12:06:53;;;;;;;;;;;;;;;32.19;32.49;99857.19;4314167;33;19999;-82
2022/08/02 12:09:21;;;;;;;;;;;;;;;32.14;33.02;99851.31;4315582;33;19989;-82
2022/08/02 12:11:50;;;;;;;;;;;;;;;32.20;31.54;99850.88;4323196;33;19996;-81
2022/08/02 12:14:17;;;;;;;;;;;;;;;31.94;33.83;99842.94;4296184;33;20484;-81
2022/08/02 12:19:29;;;;;;;;;;;;;;;31.95;32.43;99843.78;4307822;33;19990;-84
2022/08/02 12:22:15;;;;;;;;;;;;;;;32.15;33.29;99840.47;4273383;33;867203;-83
2022/08/02 12:24:47;;;;;;;;;;;;;;;32.12;31.72;99837.19;4317342;33;20047;-83
2022/08/02 12:27:35;;;;;;;;;;;;;;;32.12;32.99;99835.34;4318736;33;19988;-83
2022/08/02 12:30:08;;;;;;;;;;;;;;;32.24;31.43;99830.91;4315562;33;19991;-84
2022/08/02 12:32:35;;;;;;;;;;;;;;;32.08;33.76;99827.66;4314508;33;20047;-84
2022/08/02 12:35:12;;;;;;;;;;;;;;;32.03;33.50;99829.81;4307045;33;20002;-83
2022/08/02 12:37:41;;;;;;;;;;;;;;;31.95;33.66;99822.34;4320481;33;20003;-84
2022/08/02 12:40:18;;;;;;;;;;;;;;;32.56;31.74;99827.69;4298216;33;20035;-85
2022/08/02 12:42:56;;;;;;;;;;;;;;;33.22;30.06;99831.53;4312051;33;20008;-83
2022/08/02 12:45:24;;;;;;;;;;;;;;;33.50;27.75;99829.38;4316734;33;20039;-83
2022/08/02 12:47:56;;;;;;;;;;;;;;;33.66;27.04;99824.47;4317586;33;20004;-84
2022/08/02 12:50:35;;;;;;;;;;;;;;;33.79;27.18;99819.84;4290333;33;20001;-84
2022/08/02 12:53:11;;;;;;;;;;;;;;;34.08;26.62;99819.34;4319844;33;19992;-86
2022/08/02 12:55:49;;;;;;;;;;;;;;;34.18;27.34;99825.66;4307934;33;20071;-83
2022/08/02 12:58:28;;;;;;;;;;;;;;;34.42;26.49;99820.03;4310511;33;20559;-84
2022/08/02 13:00:59;;;;;;;;;;;;;;;34.68;26.28;99812.50;4309046;33;20075;-86
2022/08/02 13:03:26;;;;;;;;;;;;;;;34.82;26.22;99818.56;4303787;33;19987;-83